createdAt,value
2023-05-07T00:02:15.398Z,101435.19
2023-05-07T00:07:18.246Z,101439.47
2023-05-07T00:12:21.072Z,101448.97
2023-05-07T00:17:25.380Z,101458.03
2023-05-07T00:22:28.214Z,101455.84
2023-05-07T00:27:31.054Z,101458.47
2023-05-07T00:32:35.300Z,101457.91
2023-05-07T00:37:38.170Z,101450.13
2023-05-07T00:42:40.968Z,101455.72
2023-05-07T00:47:45.324Z,101452.38
2023-05-07T00:52:48.295Z,101453.13
2023-05-07T00:57:51.756Z,101442.75
2023-05-07T01:02:56.113Z,101443.72
2023-05-07T01:07:59.578Z,101445.75
2023-05-07T01:13:03.175Z,101437.97
2023-05-07T01:18:08.030Z,101452.06
2023-05-07T01:23:14.077Z,101446.56
2023-05-07T01:28:16.902Z,101448.41
2023-05-07T01:33:23.418Z,101450.28
2023-05-07T01:38:28.335Z,101446.34
2023-05-07T01:43:31.877Z,101447.44
2023-05-07T01:48:34.971Z,101445.47
2023-05-07T01:53:39.588Z,101441.13
2023-05-07T01:58:42.560Z,101440.00
2023-05-07T02:03:46.067Z,101435.69
2023-05-07T02:08:58.098Z,101447.19
2023-05-07T02:14:01.215Z,101437.31
2023-05-07T02:19:04.164Z,101437.41
2023-05-07T02:24:08.821Z,101440.09
2023-05-07T02:29:11.668Z,101433.28
2023-05-07T02:34:15.719Z,101452.69
2023-05-07T02:39:20.005Z,101453.59
2023-05-07T02:44:23.044Z,101452.69
2023-05-07T02:49:27.726Z,101459.56
2023-05-07T02:54:32.530Z,101463.84
2023-05-07T02:59:35.497Z,101466.44
2023-05-07T03:04:38.619Z,101467.28
2023-05-07T03:09:43.039Z,101474.22
2023-05-07T03:14:46.084Z,101478.56
2023-05-07T03:19:49.020Z,101476.84
2023-05-07T03:24:53.368Z,101474.28
2023-05-07T03:29:56.190Z,101476.97
2023-05-07T03:34:59.193Z,101476.09
2023-05-07T03:40:05.027Z,101480.50
2023-05-07T03:45:16.418Z,101477.94
2023-05-07T03:50:24.278Z,101482.34
2023-05-07T03:55:28.616Z,101478.03
2023-05-07T04:00:39.068Z,101483.34
2023-05-07T04:05:50.582Z,101500.97
2023-05-07T04:10:58.317Z,101501.00
2023-05-07T04:16:04.287Z,101500.28
2023-05-07T04:21:08.192Z,101509.09
2023-05-07T04:26:16.260Z,101514.25
2023-05-07T04:31:20.999Z,101508.94
2023-05-07T04:36:28.800Z,101519.41
2023-05-07T04:41:39.194Z,101516.84
2023-05-07T04:46:43.777Z,101518.50
2023-05-07T04:51:47.172Z,101533.38
2023-05-07T04:56:54.314Z,101526.22
2023-05-07T05:01:57.382Z,101534.66
2023-05-07T05:07:00.585Z,101534.38
2023-05-07T05:12:08.180Z,101529.66
2023-05-07T05:17:12.814Z,101534.56
2023-05-07T05:22:16.221Z,101545.81
2023-05-07T05:27:20.530Z,101545.66
2023-05-07T05:32:23.545Z,101555.44
2023-05-07T05:37:31.208Z,101559.25
2023-05-07T05:42:36.825Z,101564.19
2023-05-07T05:47:40.135Z,101584.53
2023-05-07T05:52:43.937Z,101584.84
2023-05-07T05:57:48.971Z,101586.34
2023-05-07T06:02:52.436Z,101591.13
2023-05-07T06:07:59.912Z,101586.47
2023-05-07T06:13:08.436Z,101587.22
2023-05-07T06:18:13.609Z,101600.16
2023-05-07T06:23:18.182Z,101595.63
2023-05-07T06:28:22.707Z,101603.34
2023-05-07T06:33:26.473Z,101611.41
2023-05-07T06:38:29.363Z,101607.97
2023-05-07T06:43:33.617Z,101624.88
2023-05-07T06:48:59.307Z,101627.97
2023-05-07T06:54:05.379Z,101624.03
2023-05-07T06:59:10.757Z,101627.41
2023-05-07T07:04:16.407Z,101631.78
2023-05-07T07:09:24.070Z,101634.94
2023-05-07T07:14:29.022Z,101642.88
2023-05-07T07:19:32.024Z,101639.19
2023-05-07T07:24:35.730Z,101638.28
2023-05-07T07:29:43.400Z,101628.75
2023-05-07T07:34:46.427Z,101626.00
2023-05-07T07:39:49.881Z,101626.00
2023-05-07T07:44:54.634Z,101614.22
2023-05-07T07:49:59.680Z,101626.78
2023-05-07T07:55:02.631Z,101623.59
2023-05-07T08:00:09.191Z,101627.63
2023-05-07T08:05:19.615Z,101632.03
2023-05-07T08:10:23.983Z,101642.16
2023-05-07T08:15:34.094Z,101645.31
2023-05-07T08:20:40.374Z,101653.28
2023-05-07T08:25:45.645Z,101649.88
2023-05-07T08:30:50.579Z,101653.03
2023-05-07T08:35:53.658Z,101655.09
2023-05-07T08:40:57.069Z,101655.00
2023-05-07T08:46:03.523Z,101662.81
2023-05-07T08:51:14.398Z,101650.66
2023-05-07T08:56:20.357Z,101656.56
2023-05-07T09:01:26.823Z,101662.03
2023-05-07T09:06:31.380Z,101656.75
2023-05-07T09:11:34.548Z,101669.41
2023-05-07T09:16:39.982Z,101664.00
2023-05-07T09:21:43.189Z,101661.22
2023-05-07T09:26:47.295Z,101664.97
2023-05-07T09:31:53.011Z,101663.22
2023-05-07T09:36:56.102Z,101657.38
2023-05-07T09:41:59.513Z,101663.78
2023-05-07T09:47:10.803Z,101667.13
2023-05-07T09:52:19.493Z,101663.78
2023-05-07T09:57:26.228Z,101672.94
2023-05-07T10:02:37.461Z,101677.34
2023-05-07T10:07:40.777Z,101675.53
2023-05-07T10:12:45.940Z,101684.31
2023-05-07T10:17:56.071Z,101688.75
2023-05-07T10:23:00.841Z,101696.09
2023-05-07T10:28:13.159Z,101683.03
2023-05-07T10:33:24.843Z,101678.06
2023-05-07T10:38:29.179Z,101684.97
2023-05-07T10:43:43.862Z,101688.47
2023-05-07T10:49:13.223Z,101683.84
2023-05-07T10:54:48.934Z,101677.34
2023-05-07T10:59:54.710Z,101675.53
2023-05-07T11:05:23.233Z,101678.44
2023-05-07T11:10:53.711Z,101674.28
2023-05-07T11:16:29.114Z,101671.34
2023-05-07T11:21:44.844Z,101677.91
2023-05-07T11:26:57.455Z,101677.75
2023-05-07T11:32:04.268Z,101681.09
2023-05-07T11:37:19.019Z,101690.91
2023-05-07T11:42:30.600Z,101689.34
2023-05-07T11:47:34.310Z,101693.03
2023-05-07T11:52:40.137Z,101694.69
2023-05-07T11:57:44.763Z,101692.41
2023-05-07T12:02:47.751Z,101690.34
2023-05-07T12:07:58.242Z,101694.97
2023-05-07T12:13:01.241Z,101692.78
2023-05-07T12:18:04.300Z,101697.25
2023-05-07T12:23:09.220Z,101700.63
2023-05-07T12:28:15.168Z,101680.66
2023-05-07T12:33:18.743Z,101692.00
2023-05-07T12:38:23.018Z,101678.28
2023-05-07T12:43:27.989Z,101682.66
2023-05-07T12:48:30.880Z,101685.22
2023-05-07T12:53:35.266Z,101704.31
2023-05-07T12:58:38.689Z,101729.22
2023-05-07T13:03:41.803Z,101726.66
2023-05-07T13:08:46.340Z,101740.25
2023-05-07T13:13:49.223Z,101770.75
2023-05-07T13:18:52.051Z,101781.00
2023-05-07T13:23:56.320Z,101792.75
2023-05-07T13:28:59.276Z,101774.88
2023-05-07T13:34:02.157Z,101778.41
2023-05-07T13:39:07.392Z,101761.16
2023-05-07T13:44:10.225Z,101758.97
2023-05-07T13:49:13.919Z,101760.16
2023-05-07T13:54:18.137Z,101748.72
2023-05-07T13:59:20.998Z,101748.97
2023-05-07T14:04:24.050Z,101737.19
2023-05-07T14:09:28.532Z,101738.44
2023-05-07T14:14:31.385Z,101738.22
2023-05-07T14:19:34.219Z,101749.00
2023-05-07T14:24:39.846Z,101748.31
2023-05-07T14:29:43.575Z,101770.03
2023-05-07T14:34:46.478Z,101786.72
2023-05-07T14:39:51.224Z,101785.47
2023-05-07T14:44:54.271Z,101784.31
2023-05-07T14:49:58.372Z,101782.59
2023-05-07T14:55:02.566Z,101783.59
2023-05-07T15:00:06.027Z,101775.56
2023-05-07T15:05:09.642Z,101777.13
2023-05-07T15:10:14.070Z,101780.00
2023-05-07T15:15:17.042Z,101786.66
2023-05-07T15:20:20.317Z,101794.53
2023-05-07T15:25:24.885Z,101805.97
2023-05-07T15:30:28.246Z,101806.78
2023-05-07T15:35:31.295Z,101806.69
2023-05-07T15:40:36.376Z,101813.72
2023-05-07T15:45:40.943Z,101811.06
2023-05-07T15:50:43.910Z,101812.16
2023-05-07T15:55:49.522Z,101820.25
2023-05-07T16:00:53.398Z,101833.09
2023-05-07T16:05:57.776Z,101825.25
2023-05-07T16:11:02.166Z,101820.94
2023-05-07T16:16:06.572Z,101825.25
2023-05-07T16:21:09.475Z,101819.31
2023-05-07T16:26:14.578Z,101819.00
2023-05-07T16:31:17.412Z,101821.56
2023-05-07T16:36:20.272Z,101829.50
2023-05-07T16:41:24.601Z,101824.13
2023-05-07T16:46:27.551Z,101824.19
2023-05-07T16:51:30.433Z,101827.91
2023-05-07T16:56:34.723Z,101821.16
2023-05-07T17:01:37.828Z,101810.72
2023-05-07T17:06:40.843Z,101820.25
2023-05-07T17:11:45.093Z,101815.88
2023-05-07T17:16:47.919Z,101813.59
2023-05-07T17:21:50.821Z,101820.31
2023-05-07T17:26:55.155Z,101819.91
2023-05-07T17:32:00.254Z,101832.94
2023-05-07T17:37:03.772Z,101834.28
2023-05-07T17:42:07.958Z,101838.38
2023-05-07T17:47:10.923Z,101841.59
2023-05-07T17:52:13.822Z,101851.94
2023-05-07T17:57:17.947Z,101845.78
2023-05-07T18:02:20.853Z,101857.84
2023-05-07T18:07:23.697Z,101865.25
2023-05-07T18:12:27.994Z,101864.03
2023-05-07T18:17:30.948Z,101869.16
2023-05-07T18:22:33.988Z,101874.09
2023-05-07T18:27:38.329Z,101884.22
2023-05-07T18:32:41.187Z,101889.06
2023-05-07T18:37:44.173Z,101885.84
2023-05-07T18:42:48.428Z,101895.28
2023-05-07T18:47:51.302Z,101901.53
2023-05-07T18:52:54.292Z,101898.13
2023-05-07T18:57:58.512Z,101893.94
2023-05-07T19:03:01.399Z,101899.28
2023-05-07T19:08:04.294Z,101899.28
2023-05-07T19:13:08.573Z,101893.38
2023-05-07T19:18:11.393Z,101886.34
2023-05-07T19:23:14.191Z,101890.81
2023-05-07T19:28:19.156Z,101899.78
2023-05-07T19:33:23.810Z,101906.22
2023-05-07T19:38:27.038Z,101905.75
2023-05-07T19:43:35.961Z,101913.91
2023-05-07T19:48:38.801Z,101927.41
2023-05-07T19:53:41.673Z,101924.19
2023-05-07T19:58:45.914Z,101920.09
2023-05-07T20:03:48.918Z,101929.03
2023-05-07T20:08:51.791Z,101931.97
2023-05-07T20:13:55.938Z,101940.16
2023-05-07T20:18:58.785Z,101944.50
2023-05-07T20:24:01.530Z,101939.28
2023-05-07T20:29:05.924Z,101944.69
2023-05-07T20:34:08.775Z,101954.50
2023-05-07T20:39:14.588Z,101961.34
2023-05-07T20:44:19.042Z,101962.31
2023-05-07T20:49:23.081Z,101965.19
2023-05-07T20:54:28.087Z,101970.59
2023-05-07T20:59:34.828Z,101980.34
2023-05-07T21:04:37.742Z,101983.91
2023-05-07T21:09:40.718Z,101988.50
2023-05-07T21:14:44.980Z,101995.66
2023-05-07T21:19:48.322Z,102002.00
2023-05-07T21:24:51.093Z,101998.66
2023-05-07T21:29:58.640Z,102007.78
2023-05-07T21:35:01.545Z,102012.53
2023-05-07T21:40:04.810Z,102007.53
2023-05-07T21:45:10.013Z,102003.34
2023-05-07T21:50:13.444Z,102003.31
2023-05-07T21:55:16.477Z,102007.78
2023-05-07T22:00:22.247Z,102012.31
2023-05-07T22:05:25.133Z,102016.06
2023-05-07T22:10:28.062Z,102022.22
2023-05-07T22:15:35.329Z,102019.59
2023-05-07T22:20:40.258Z,102037.31
2023-05-07T22:25:43.228Z,102028.75
2023-05-07T22:30:47.459Z,102033.13
2023-05-07T22:35:50.276Z,102028.94
2023-05-07T22:40:53.182Z,102025.44
2023-05-07T22:46:01.251Z,102028.16
2023-05-07T22:51:04.555Z,102019.59
2023-05-07T22:56:08.534Z,102015.34
2023-05-07T23:01:17.118Z,102024.38
2023-05-07T23:06:20.055Z,102026.34
2023-05-07T23:11:22.963Z,102029.97
2023-05-07T23:16:28.771Z,102039.84
2023-05-07T23:21:31.904Z,102038.22
2023-05-07T23:26:34.709Z,102037.44
2023-05-07T23:31:38.912Z,102034.03
2023-05-07T23:36:41.858Z,102033.25
2023-05-07T23:41:44.601Z,102032.44
2023-05-07T23:46:48.777Z,102034.38
2023-05-07T23:51:51.624Z,102035.19
2023-05-07T23:56:54.514Z,102025.59
